createdAt,value
2023-01-19T00:00:21.096Z,0.30
2023-01-19T00:02:48.267Z,0.30
2023-01-19T00:05:15.113Z,0.40
2023-01-19T00:07:42.271Z,0.30
2023-01-19T00:10:10.213Z,0.40
2023-01-19T00:12:37.176Z,0.30
2023-01-19T00:15:04.424Z,0.40
2023-01-19T00:17:31.441Z,0.40
2023-01-19T00:19:58.229Z,0.30
2023-01-19T00:22:25.000Z,0.30
2023-01-19T00:24:51.804Z,0.30
2023-01-19T00:27:18.688Z,0.20
2023-01-19T00:29:45.443Z,0.20
2023-01-19T00:32:12.226Z,0.10
2023-01-19T00:34:42.615Z,0.10
2023-01-19T00:37:10.145Z,-0.10
2023-01-19T00:39:37.286Z,-0.10
2023-01-19T00:42:23.102Z,-0.10
2023-01-19T00:44:49.927Z,-0.20
2023-01-19T00:47:16.683Z,-0.10
2023-01-19T00:49:43.480Z,-0.10
2023-01-19T00:52:10.915Z,0.00
2023-01-19T00:54:37.647Z,0.00
2023-01-19T00:57:04.484Z,0.00
2023-01-19T00:59:31.322Z,0.00
2023-01-19T01:01:58.347Z,0.10
2023-01-19T01:04:25.273Z,0.10
2023-01-19T01:06:52.029Z,0.10
2023-01-19T01:09:18.782Z,0.20
2023-01-19T01:11:45.634Z,0.10
2023-01-19T01:14:13.092Z,0.20
2023-01-19T01:16:40.257Z,0.20
2023-01-19T01:19:07.280Z,0.20
2023-01-19T01:21:34.800Z,0.20
2023-01-19T01:24:02.145Z,0.20
2023-01-19T01:26:29.061Z,0.20
2023-01-19T01:28:55.804Z,0.30
2023-01-19T01:31:22.634Z,0.40
2023-01-19T01:33:49.448Z,0.30
2023-01-19T01:36:16.452Z,0.40
2023-01-19T01:38:43.202Z,0.50
2023-01-19T01:41:10.104Z,0.50
2023-01-19T01:43:50.308Z,0.50
2023-01-19T01:46:19.883Z,0.50
2023-01-19T01:49:10.338Z,0.50
2023-01-19T01:51:40.648Z,0.50
2023-01-19T01:54:25.794Z,0.50
2023-01-19T01:56:56.458Z,0.40
2023-01-19T01:59:28.071Z,0.40
2023-01-19T02:02:15.903Z,0.30
2023-01-19T02:04:56.675Z,0.40
2023-01-19T02:07:49.690Z,0.40
2023-01-19T02:10:34.959Z,0.40
2023-01-19T02:13:21.666Z,0.30
2023-01-19T02:15:51.674Z,0.40
2023-01-19T02:18:20.380Z,0.30
2023-01-19T02:21:05.610Z,0.30
2023-01-19T02:23:45.235Z,0.20
2023-01-19T02:26:19.241Z,0.20
2023-01-19T02:29:10.154Z,0.20
2023-01-19T02:31:39.108Z,0.30
2023-01-19T02:34:08.709Z,0.30
2023-01-19T02:36:42.915Z,0.30
2023-01-19T02:39:11.250Z,0.30
2023-01-19T02:41:49.342Z,0.40
2023-01-19T02:44:17.353Z,0.50
2023-01-19T02:46:44.418Z,0.50
2023-01-19T02:49:11.163Z,0.50
2023-01-19T02:51:37.975Z,0.50
2023-01-19T02:54:25.871Z,0.60
2023-01-19T02:57:10.115Z,0.50
2023-01-19T02:59:37.245Z,0.60
2023-01-19T03:02:32.630Z,0.80
2023-01-19T03:05:24.191Z,0.80
2023-01-19T03:08:06.296Z,0.80
2023-01-19T03:10:54.681Z,0.80
2023-01-19T03:13:42.441Z,0.80
2023-01-19T03:16:27.796Z,0.90
2023-01-19T03:19:17.731Z,0.80
2023-01-19T03:21:47.589Z,0.80
2023-01-19T03:24:16.245Z,0.80
2023-01-19T03:26:47.393Z,0.80
2023-01-19T03:29:15.697Z,0.80
2023-01-19T03:31:46.118Z,0.80
2023-01-19T03:34:15.081Z,0.90
2023-01-19T03:36:47.686Z,0.80
2023-01-19T03:39:21.299Z,0.70
2023-01-19T03:41:50.984Z,0.70
2023-01-19T03:44:17.780Z,0.70
2023-01-19T03:46:46.317Z,0.70
2023-01-19T03:49:13.111Z,0.70
2023-01-19T03:51:40.158Z,0.60
2023-01-19T03:54:07.987Z,0.60
2023-01-19T03:56:34.804Z,0.50
2023-01-19T03:59:01.598Z,0.50
2023-01-19T04:01:28.641Z,0.50
2023-01-19T04:03:55.527Z,0.50
2023-01-19T04:06:22.541Z,0.50
2023-01-19T04:08:51.011Z,0.50
2023-01-19T04:11:17.829Z,0.50
2023-01-19T04:13:44.934Z,0.50
2023-01-19T04:16:12.448Z,0.50
2023-01-19T04:18:40.646Z,0.60
2023-01-19T04:21:07.955Z,0.60
2023-01-19T04:23:34.792Z,0.60
2023-01-19T04:26:04.233Z,0.60
2023-01-19T04:28:31.969Z,0.60
2023-01-19T04:30:59.102Z,0.70
2023-01-19T04:33:27.958Z,0.80
2023-01-19T04:35:56.065Z,0.90
2023-01-19T04:38:23.889Z,0.90
2023-01-19T04:40:51.154Z,0.90
2023-01-19T04:43:18.292Z,1.00
2023-01-19T04:45:46.505Z,1.00
2023-01-19T04:48:14.138Z,1.10
2023-01-19T04:50:41.949Z,1.10
2023-01-19T04:53:09.397Z,1.10
2023-01-19T04:55:38.848Z,1.10
2023-01-19T04:58:05.687Z,1.20
2023-01-19T05:00:32.473Z,1.20
2023-01-19T05:02:59.878Z,1.20
2023-01-19T05:05:27.387Z,1.30
2023-01-19T05:07:54.761Z,1.30
2023-01-19T05:10:21.798Z,1.30
2023-01-19T05:12:48.758Z,1.20
2023-01-19T05:15:15.616Z,1.20
2023-01-19T05:17:42.469Z,1.20
2023-01-19T05:20:15.956Z,1.20
2023-01-19T05:22:43.854Z,1.30
2023-01-19T05:25:10.614Z,1.30
2023-01-19T05:27:38.655Z,1.30
2023-01-19T05:30:06.290Z,1.30
2023-01-19T05:32:33.074Z,1.30
2023-01-19T05:35:00.105Z,1.30
2023-01-19T05:37:26.982Z,1.40
2023-01-19T05:39:54.271Z,1.40
2023-01-19T05:42:21.237Z,1.40
2023-01-19T05:44:47.987Z,1.50
2023-01-19T05:47:14.782Z,1.50
2023-01-19T05:49:41.746Z,1.60
2023-01-19T05:52:08.519Z,1.60
2023-01-19T05:54:35.250Z,1.60
2023-01-19T05:57:03.069Z,1.70
2023-01-19T05:59:29.851Z,1.60
2023-01-19T06:01:57.187Z,1.60
2023-01-19T06:04:24.419Z,1.60
2023-01-19T06:06:51.564Z,1.60
2023-01-19T06:09:18.715Z,1.70
2023-01-19T06:11:46.641Z,1.70
2023-01-19T06:14:13.615Z,1.90
2023-01-19T06:16:40.695Z,1.80
2023-01-19T06:19:07.614Z,1.90
2023-01-19T06:21:34.656Z,1.90
2023-01-19T06:24:01.504Z,1.70
2023-01-19T06:26:28.464Z,1.80
2023-01-19T06:28:55.520Z,1.80
2023-01-19T06:31:22.442Z,1.90
2023-01-19T06:33:50.134Z,1.90
2023-01-19T06:36:16.980Z,1.90
2023-01-19T06:38:43.944Z,2.10
2023-01-19T06:41:10.664Z,2.10
2023-01-19T06:43:37.395Z,2.00
2023-01-19T06:46:04.923Z,1.90
2023-01-19T06:48:31.765Z,1.90
2023-01-19T06:50:59.667Z,1.80
2023-01-19T06:53:52.423Z,1.60
2023-01-19T06:56:19.135Z,1.50
2023-01-19T06:58:48.080Z,1.60
2023-01-19T07:01:15.395Z,1.50
2023-01-19T07:03:42.358Z,1.50
2023-01-19T07:06:09.355Z,1.50
2023-01-19T07:08:37.322Z,1.50
2023-01-19T07:11:26.403Z,1.40
2023-01-19T07:13:56.354Z,1.30
2023-01-19T07:16:24.151Z,1.20
2023-01-19T07:18:51.221Z,1.20
2023-01-19T07:21:18.769Z,1.30
2023-01-19T07:23:49.681Z,1.20
2023-01-19T07:26:18.600Z,1.20
2023-01-19T07:28:47.352Z,1.20
2023-01-19T07:31:15.673Z,1.30
2023-01-19T07:33:42.601Z,1.20
2023-01-19T07:36:10.135Z,1.40
2023-01-19T07:38:36.977Z,1.40
2023-01-19T07:41:06.113Z,1.40
2023-01-19T07:43:33.991Z,1.40
2023-01-19T07:46:02.384Z,1.20
2023-01-19T07:48:29.605Z,1.20
2023-01-19T07:51:01.322Z,1.30
2023-01-19T07:53:28.218Z,1.20
2023-01-19T07:55:56.615Z,1.30
2023-01-19T07:58:26.865Z,1.20
2023-01-19T08:00:54.977Z,1.30
2023-01-19T08:03:21.759Z,1.20
2023-01-19T08:05:57.090Z,1.10
2023-01-19T08:08:23.891Z,1.20
2023-01-19T08:10:51.700Z,1.20
2023-01-19T08:13:19.206Z,1.30
2023-01-19T08:15:50.463Z,1.30
2023-01-19T08:18:17.983Z,1.40
2023-01-19T08:20:44.811Z,1.40
2023-01-19T08:23:26.273Z,1.40
2023-01-19T08:25:53.289Z,1.50
2023-01-19T08:28:20.732Z,1.50
2023-01-19T08:30:54.240Z,1.40
2023-01-19T08:33:25.389Z,1.50
2023-01-19T08:35:53.975Z,1.50
2023-01-19T08:38:20.831Z,1.50
2023-01-19T08:40:48.993Z,1.50
2023-01-19T08:43:17.168Z,1.60
2023-01-19T08:45:49.990Z,1.60
2023-01-19T08:48:19.163Z,1.60
2023-01-19T08:50:49.771Z,1.60
2023-01-19T08:53:17.019Z,1.60
2023-01-19T08:55:43.783Z,1.60
2023-01-19T08:58:10.661Z,1.70
2023-01-19T09:00:39.310Z,1.60
2023-01-19T09:03:08.158Z,1.70
2023-01-19T09:05:38.936Z,1.80
2023-01-19T09:08:09.197Z,1.90
2023-01-19T09:10:37.831Z,1.90
2023-01-19T09:13:07.037Z,1.90
2023-01-19T09:15:35.893Z,1.80
2023-01-19T09:18:04.686Z,1.90
2023-01-19T09:20:32.257Z,2.00
2023-01-19T09:22:59.045Z,2.20
2023-01-19T09:25:26.042Z,2.30
2023-01-19T09:27:53.423Z,2.40
2023-01-19T09:30:20.570Z,2.30
2023-01-19T09:32:47.417Z,2.30
2023-01-19T09:35:14.442Z,2.40
2023-01-19T09:37:45.397Z,2.30
2023-01-19T09:40:13.099Z,2.50
2023-01-19T09:42:57.563Z,2.40
2023-01-19T09:45:46.075Z,2.40
2023-01-19T09:48:39.060Z,2.50
2023-01-19T09:51:11.972Z,2.60
2023-01-19T09:53:50.949Z,2.50
2023-01-19T09:56:21.691Z,2.50
2023-01-19T09:58:53.567Z,2.60
2023-01-19T10:01:26.631Z,2.60
2023-01-19T10:04:22.515Z,2.50
2023-01-19T10:06:52.118Z,2.60
2023-01-19T10:09:33.809Z,2.70
2023-01-19T10:12:13.595Z,2.90
2023-01-19T10:15:04.715Z,2.90
2023-01-19T10:18:10.543Z,2.90
2023-01-19T10:21:16.689Z,2.80
2023-01-19T10:23:49.779Z,2.90
2023-01-19T10:26:44.211Z,3.10
2023-01-19T10:29:41.347Z,2.90
2023-01-19T10:32:27.044Z,2.70
2023-01-19T10:34:56.168Z,2.80
2023-01-19T10:37:37.488Z,2.90
2023-01-19T10:40:21.759Z,2.80
2023-01-19T10:42:49.009Z,2.70
2023-01-19T10:45:21.803Z,2.90
2023-01-19T10:47:53.096Z,2.90
2023-01-19T10:50:31.107Z,2.90
2023-01-19T10:53:06.237Z,3.00
2023-01-19T10:55:40.549Z,3.10
2023-01-19T10:58:31.640Z,3.10
2023-01-19T11:01:15.299Z,3.10
2023-01-19T11:03:43.114Z,3.10
2023-01-19T11:06:19.686Z,3.10
2023-01-19T11:08:48.725Z,3.20
2023-01-19T11:11:16.624Z,3.30
2023-01-19T11:13:44.733Z,3.20
2023-01-19T11:16:29.412Z,3.20
2023-01-19T11:18:58.626Z,3.30
2023-01-19T11:21:35.157Z,3.30
2023-01-19T11:24:15.249Z,3.30
2023-01-19T11:26:59.239Z,3.40
2023-01-19T11:29:27.446Z,3.40
2023-01-19T11:31:55.631Z,3.50
2023-01-19T11:34:35.061Z,3.50
2023-01-19T11:37:05.570Z,3.60
2023-01-19T11:39:46.255Z,3.50
2023-01-19T11:42:14.754Z,3.60
2023-01-19T11:44:58.235Z,3.60
2023-01-19T11:47:36.445Z,3.70
2023-01-19T11:50:07.575Z,3.60
2023-01-19T11:53:03.991Z,3.60
2023-01-19T11:55:42.363Z,3.60
2023-01-19T11:58:16.138Z,3.80
2023-01-19T12:01:01.648Z,3.90
2023-01-19T12:03:35.156Z,4.00
2023-01-19T12:06:07.458Z,4.10
2023-01-19T12:08:45.221Z,4.20
2023-01-19T12:11:19.237Z,4.20
2023-01-19T12:13:48.080Z,4.30
2023-01-19T12:16:22.953Z,4.40
2023-01-19T12:18:59.506Z,4.60
2023-01-19T12:21:26.357Z,4.30
2023-01-19T12:24:06.431Z,4.50
2023-01-19T12:26:39.140Z,4.50
2023-01-19T12:29:22.252Z,4.40
2023-01-19T12:32:08.089Z,4.40
2023-01-19T12:34:49.079Z,4.60
2023-01-19T12:37:33.468Z,4.60
2023-01-19T12:40:21.195Z,4.70
2023-01-19T12:43:04.755Z,4.80
2023-01-19T12:45:36.386Z,4.80
2023-01-19T12:48:04.863Z,4.60
2023-01-19T12:50:38.276Z,4.70
2023-01-19T12:53:15.818Z,4.80
2023-01-19T12:55:46.736Z,4.70
2023-01-19T12:58:21.855Z,4.60
2023-01-19T13:00:51.410Z,4.60
2023-01-19T13:03:18.263Z,4.70
2023-01-19T13:05:45.103Z,4.80
2023-01-19T13:08:12.793Z,4.70
2023-01-19T13:11:10.827Z,4.80
2023-01-19T13:13:43.865Z,4.80
2023-01-19T13:16:20.285Z,4.90
2023-01-19T13:18:50.501Z,4.90
2023-01-19T13:21:40.297Z,5.20
2023-01-19T13:24:24.279Z,5.30
2023-01-19T13:26:51.826Z,5.50
2023-01-19T13:29:48.315Z,5.40
2023-01-19T13:32:18.785Z,5.40
2023-01-19T13:34:57.267Z,5.10
2023-01-19T13:37:29.501Z,4.90
2023-01-19T13:39:57.339Z,5.00
2023-01-19T13:42:32.683Z,5.00
2023-01-19T13:45:03.470Z,5.00
2023-01-19T13:47:44.697Z,4.80
2023-01-19T13:50:33.819Z,4.70
2023-01-19T13:53:01.807Z,4.80
2023-01-19T13:55:30.988Z,4.80
2023-01-19T13:57:58.549Z,4.60
2023-01-19T14:00:28.029Z,4.70
2023-01-19T14:03:01.656Z,4.60
2023-01-19T14:05:36.207Z,4.30
2023-01-19T14:08:12.189Z,4.30
2023-01-19T14:10:42.970Z,4.30
2023-01-19T14:13:20.667Z,4.30
2023-01-19T14:15:50.325Z,4.20
2023-01-19T14:18:17.667Z,4.30
2023-01-19T14:20:58.362Z,4.20
2023-01-19T14:23:47.429Z,4.30
2023-01-19T14:26:49.794Z,4.20
2023-01-19T14:29:27.726Z,4.30
2023-01-19T14:35:26.325Z,4.20
2023-01-19T14:38:08.846Z,4.10
2023-01-19T14:40:47.441Z,4.20
2023-01-19T14:43:35.298Z,4.30
2023-01-19T14:46:04.078Z,4.30
2023-01-19T14:48:34.023Z,4.20
2023-01-19T14:51:05.640Z,4.30
2023-01-19T14:53:39.591Z,4.30
2023-01-19T14:56:07.293Z,4.30
2023-01-19T14:58:35.614Z,4.10
2023-01-19T15:01:03.453Z,4.20
2023-01-19T15:03:44.835Z,4.20
2023-01-19T15:06:21.743Z,4.20
2023-01-19T15:08:50.497Z,4.20
2023-01-19T15:11:24.279Z,4.20
2023-01-19T15:13:51.903Z,4.20
2023-01-19T15:16:19.746Z,4.30
2023-01-19T15:18:46.674Z,4.20
2023-01-19T15:21:29.218Z,4.30
2023-01-19T15:23:58.234Z,4.20
2023-01-19T15:26:27.311Z,4.10
2023-01-19T15:28:55.844Z,4.10
2023-01-19T15:31:25.488Z,4.00
2023-01-19T15:33:52.348Z,4.10
2023-01-19T15:36:24.530Z,4.10
2023-01-19T15:38:51.511Z,4.30
2023-01-19T15:41:28.410Z,4.30
2023-01-19T15:43:55.598Z,4.00
2023-01-19T15:46:25.358Z,4.00
2023-01-19T15:48:53.571Z,3.90
2023-01-19T15:51:23.588Z,3.90
2023-01-19T15:53:50.940Z,3.90
2023-01-19T15:56:21.079Z,3.90
2023-01-19T15:58:47.920Z,3.80
2023-01-19T16:01:18.000Z,3.80
2023-01-19T16:03:46.011Z,3.90
2023-01-19T16:06:13.809Z,3.80
2023-01-19T16:08:41.455Z,3.80
2023-01-19T16:11:13.964Z,3.80
2023-01-19T16:13:41.116Z,3.90
2023-01-19T16:16:13.712Z,4.00
2023-01-19T16:18:40.709Z,3.80
2023-01-19T16:21:07.572Z,3.90
2023-01-19T16:23:34.561Z,3.70
2023-01-19T16:26:10.549Z,3.70
2023-01-19T16:28:38.195Z,3.70
2023-01-19T16:31:05.212Z,3.50
2023-01-19T16:33:32.302Z,3.60
2023-01-19T16:35:59.157Z,3.50
2023-01-19T16:38:26.131Z,3.80
2023-01-19T16:40:53.034Z,3.70
2023-01-19T16:43:19.823Z,3.70
2023-01-19T16:45:59.229Z,3.50
2023-01-19T16:48:27.061Z,3.60
2023-01-19T16:51:06.099Z,3.60
2023-01-19T16:53:50.661Z,3.50
2023-01-19T16:56:17.627Z,3.40
2023-01-19T16:58:44.645Z,3.30
2023-01-19T17:01:20.310Z,3.20
2023-01-19T17:03:47.895Z,3.20
2023-01-19T17:06:18.454Z,3.10
2023-01-19T17:08:46.507Z,3.00
2023-01-19T17:11:22.227Z,3.00
2023-01-19T17:13:52.328Z,3.00
2023-01-19T17:16:19.168Z,3.30
2023-01-19T17:18:46.331Z,3.40
2023-01-19T17:21:14.374Z,3.30
2023-01-19T17:23:46.271Z,3.20
2023-01-19T17:26:13.660Z,3.10
2023-01-19T17:28:41.220Z,3.10
2023-01-19T17:31:16.871Z,3.00
2023-01-19T17:33:45.386Z,2.90
2023-01-19T17:36:14.989Z,2.80
2023-01-19T17:38:42.045Z,2.80
2023-01-19T17:41:17.787Z,2.80
2023-01-19T17:43:45.389Z,2.80
2023-01-19T17:46:12.765Z,2.70
2023-01-19T17:48:40.047Z,2.80
2023-01-19T17:51:09.667Z,2.80
2023-01-19T17:53:37.681Z,2.70
2023-01-19T17:56:10.234Z,2.60
2023-01-19T17:58:37.737Z,2.70
2023-01-19T18:01:10.078Z,2.80
2023-01-19T18:03:37.313Z,2.80
2023-01-19T18:06:04.226Z,2.70
2023-01-19T18:08:32.639Z,2.70
2023-01-19T18:11:01.133Z,2.70
2023-01-19T18:13:28.941Z,2.60
2023-01-19T18:16:04.671Z,2.60
2023-01-19T18:18:31.938Z,2.60
2023-01-19T18:21:04.003Z,2.50
2023-01-19T18:23:30.940Z,2.40
2023-01-19T18:26:02.217Z,2.40
2023-01-19T18:28:30.145Z,2.30
2023-01-19T18:30:57.141Z,2.20
2023-01-19T18:33:24.467Z,2.20
2023-01-19T18:35:51.768Z,2.20
2023-01-19T18:38:18.542Z,2.10
2023-01-19T18:40:45.527Z,2.10
2023-01-19T18:43:12.763Z,2.10
2023-01-19T18:45:41.807Z,2.10
2023-01-19T18:48:09.446Z,2.10
2023-01-19T18:50:37.543Z,2.00
2023-01-19T18:53:04.337Z,2.00
2023-01-19T18:55:31.145Z,1.90
2023-01-19T18:57:58.011Z,2.00
2023-01-19T19:00:24.958Z,2.00
2023-01-19T19:02:51.758Z,1.90
2023-01-19T19:05:18.596Z,1.90
2023-01-19T19:07:45.522Z,1.80
2023-01-19T19:10:12.775Z,1.70
2023-01-19T19:12:39.724Z,1.70
2023-01-19T19:15:07.609Z,1.60
2023-01-19T19:17:37.617Z,1.50
2023-01-19T19:20:04.819Z,1.50
2023-01-19T19:22:32.013Z,1.50
2023-01-19T19:24:58.887Z,1.40
2023-01-19T19:27:25.757Z,1.40
2023-01-19T19:29:53.921Z,1.50
2023-01-19T19:32:21.109Z,1.60
2023-01-19T19:34:57.279Z,1.70
2023-01-19T19:37:24.968Z,1.60
2023-01-19T19:39:52.099Z,1.50
2023-01-19T19:42:19.245Z,1.40
2023-01-19T19:44:47.427Z,1.40
2023-01-19T19:47:14.433Z,1.20
2023-01-19T19:49:41.481Z,1.20
2023-01-19T19:52:08.525Z,1.10
2023-01-19T19:54:35.373Z,1.10
2023-01-19T19:57:02.415Z,1.00
2023-01-19T19:59:30.264Z,1.00
2023-01-19T20:01:57.221Z,1.00
2023-01-19T20:04:25.378Z,1.10
2023-01-19T20:06:52.296Z,1.20
2023-01-19T20:09:19.319Z,1.50
2023-01-19T20:11:46.781Z,1.60
2023-01-19T20:14:16.352Z,1.60
2023-01-19T20:16:43.783Z,1.60
2023-01-19T20:19:11.110Z,1.60
2023-01-19T20:21:41.943Z,1.60
2023-01-19T20:24:18.002Z,1.50
2023-01-19T20:26:48.675Z,1.60
2023-01-19T20:29:15.912Z,1.50
2023-01-19T20:31:48.947Z,1.40
2023-01-19T20:34:18.298Z,1.30
2023-01-19T20:36:49.689Z,1.30
2023-01-19T20:39:18.640Z,1.30
2023-01-19T20:41:45.754Z,1.30
2023-01-19T20:44:15.328Z,1.40
2023-01-19T20:46:42.571Z,1.40
2023-01-19T20:49:10.197Z,1.30
2023-01-19T20:51:39.834Z,1.40
2023-01-19T20:54:06.676Z,1.30
2023-01-19T20:56:33.608Z,1.30
2023-01-19T20:59:02.218Z,1.30
2023-01-19T21:01:29.270Z,1.30
2023-01-19T21:03:56.216Z,1.50
2023-01-19T21:06:25.100Z,1.50
2023-01-19T21:08:52.238Z,1.50
2023-01-19T21:11:21.139Z,1.50
2023-01-19T21:13:53.428Z,1.60
2023-01-19T21:16:23.909Z,1.60
2023-01-19T21:18:50.928Z,1.60
2023-01-19T21:21:29.407Z,1.80
2023-01-19T21:23:58.310Z,1.60
2023-01-19T21:26:25.435Z,1.60
2023-01-19T21:28:52.376Z,1.60
2023-01-19T21:31:21.569Z,1.50
2023-01-19T21:33:49.591Z,1.60
2023-01-19T21:36:16.827Z,1.60
2023-01-19T21:38:43.795Z,1.60
2023-01-19T21:41:12.783Z,1.70
2023-01-19T21:43:41.881Z,1.70
2023-01-19T21:46:29.709Z,1.70
2023-01-19T21:49:02.192Z,1.70
2023-01-19T21:51:33.736Z,1.70
2023-01-19T21:54:01.894Z,1.70
2023-01-19T21:56:29.785Z,1.80
2023-01-19T21:58:57.792Z,1.80
2023-01-19T22:01:24.811Z,1.80
2023-01-19T22:03:56.158Z,1.80
2023-01-19T22:06:23.519Z,1.90
2023-01-19T22:08:50.617Z,1.90
2023-01-19T22:11:19.793Z,1.90
2023-01-19T22:13:47.002Z,2.00
2023-01-19T22:16:16.672Z,2.00
2023-01-19T22:18:45.948Z,2.10
2023-01-19T22:21:16.950Z,2.20
2023-01-19T22:23:43.858Z,2.00
2023-01-19T22:26:11.704Z,2.00
2023-01-19T22:28:39.121Z,1.90
2023-01-19T22:31:14.912Z,1.90
2023-01-19T22:33:42.486Z,1.90
2023-01-19T22:36:23.631Z,1.80
2023-01-19T22:38:52.340Z,1.80
2023-01-19T22:41:21.824Z,1.80
2023-01-19T22:43:49.827Z,1.80
2023-01-19T22:46:20.738Z,1.80
2023-01-19T22:48:49.000Z,1.80
2023-01-19T22:51:17.146Z,1.70
2023-01-19T22:53:44.028Z,1.70
2023-01-19T22:56:19.459Z,1.70
2023-01-19T22:58:47.288Z,1.70
2023-01-19T23:01:19.961Z,1.70
2023-01-19T23:03:46.957Z,1.70
2023-01-19T23:06:16.538Z,1.70
2023-01-19T23:08:43.707Z,1.70
2023-01-19T23:11:15.494Z,1.70
2023-01-19T23:13:42.872Z,1.60
2023-01-19T23:16:11.528Z,1.60
2023-01-19T23:18:38.913Z,1.60
2023-01-19T23:21:07.304Z,1.60
2023-01-19T23:23:34.933Z,1.60
2023-01-19T23:26:07.338Z,1.60
2023-01-19T23:28:36.909Z,1.60
2023-01-19T23:31:18.045Z,1.60
2023-01-19T23:33:45.103Z,1.50
2023-01-19T23:36:12.884Z,1.50
2023-01-19T23:38:40.275Z,1.50
2023-01-19T23:41:07.431Z,1.50
2023-01-19T23:43:34.449Z,1.50
2023-01-19T23:46:05.721Z,1.50
2023-01-19T23:48:34.323Z,1.50
2023-01-19T23:51:13.392Z,1.50
2023-01-19T23:53:40.825Z,1.40
2023-01-19T23:56:13.423Z,1.40
2023-01-19T23:58:40.455Z,1.30
